sensor_id;sensor_type;location;lat;lon;timestamp;pressure;altitude;pressure_sealevel;temperature;humidity
76044;BME280;64740;34.694;33.088;2024-02-15T00:04:46;1032.5;;;18.8;52.9
76044;BME280;64740;34.694;33.088;2024-02-15T00:09:34;1032.5;;;18.8;52.9
76044;BME280;64740;34.694;33.088;2024-02-15T00:14:54;1032.4;;;18.8;53.1
76044;BME280;64740;34.694;33.088;2024-02-15T00:19:16;1032.5;;;18.7;52.9
76044;BME280;64740;34.694;33.088;2024-02-15T00:24:54;1032.5;;;18.7;52.9
76044;BME280;64740;34.694;33.088;2024-02-15T00:29:40;1032.5;;;18.7;53.1
76044;BME280;64740;34.694;33.088;2024-02-15T00:34:44;1032.5;;;18.7;53
76044;BME280;64740;34.694;33.088;2024-02-15T00:39:16;1032.5;;;18.7;52.9
76044;BME280;64740;34.694;33.088;2024-02-15T00:44:46;1032.4;;;18.7;52.9
76044;BME280;64740;34.694;33.088;2024-02-15T00:49:34;1032.4;;;18.7;52.7
76044;BME280;64740;34.694;33.088;2024-02-15T00:54:54;1032.4;;;18.8;52.5
76044;BME280;64740;34.694;33.088;2024-02-15T00:59:36;1032.3;;;18.8;52.6
76044;BME280;64740;34.694;33.088;2024-02-15T01:04:44;1032.3;;;18.8;52.4
76044;BME280;64740;34.694;33.088;2024-02-15T01:09:38;1032.3;;;18.8;52.3
76044;BME280;64740;34.694;33.088;2024-02-15T01:14:16;1032.3;;;18.8;52.2
76044;BME280;64740;34.694;33.088;2024-02-15T01:19:16;1032.3;;;18.8;52.2
76044;BME280;64740;34.694;33.088;2024-02-15T01:24:16;1032.3;;;18.8;52.2
76044;BME280;64740;34.694;33.088;2024-02-15T01:29:16;1032.3;;;18.9;52.1
76044;BME280;64740;34.694;33.088;2024-02-15T01:34:54;1032.3;;;18.9;51.7
76044;BME280;64740;34.694;33.088;2024-02-15T01:39:34;1032.4;;;18.9;51.9
76044;BME280;64740;34.694;33.088;2024-02-15T01:44:54;1032.4;;;18.9;51.5
76044;BME280;64740;34.694;33.088;2024-02-15T01:49:54;1032.5;;;18.8;51.8
76044;BME280;64740;34.694;33.088;2024-02-15T01:54:32;1032.5;;;18.8;51.7
76044;BME280;64740;34.694;33.088;2024-02-15T01:59:54;1032.5;;;18.8;51.5
76044;BME280;64740;34.694;33.088;2024-02-15T02:04:54;1032.5;;;18.8;51.3
76044;BME280;64740;34.694;33.088;2024-02-15T02:09:30;1032.6;;;18.8;51.5
76044;BME280;64740;34.694;33.088;2024-02-15T02:14:24;1032.6;;;18.8;51.4
76044;BME280;64740;34.694;33.088;2024-02-15T02:19:38;1032.6;;;18.7;51.3
76044;BME280;64740;34.694;33.088;2024-02-15T02:25:02;1032.6;;;18.7;51.4
76044;BME280;64740;34.694;33.088;2024-02-15T02:29:52;1032.6;;;18.8;51.5
76044;BME280;64740;34.694;33.088;2024-02-15T02:34:36;1032.7;;;18.8;51.1
76044;BME280;64740;34.694;33.088;2024-02-15T02:39:44;1032.7;;;18.8;51.4
76044;BME280;64740;34.694;33.088;2024-02-15T02:44:16;1032.7;;;18.9;51.3
76044;BME280;64740;34.694;33.088;2024-02-15T02:49:22;1032.7;;;18.9;50.9
76044;BME280;64740;34.694;33.088;2024-02-15T02:54:16;1032.7;;;19;50.8
76044;BME280;64740;34.694;33.088;2024-02-15T02:59:24;1032.7;;;18.9;50.8
76044;BME280;64740;34.694;33.088;2024-02-15T03:04:16;1032.7;;;18.9;50.7
76044;BME280;64740;34.694;33.088;2024-02-15T03:09:30;1032.6;;;18.9;50.7
76044;BME280;64740;34.694;33.088;2024-02-15T03:14:18;1032.6;;;18.9;50.9
76044;BME280;64740;34.694;33.088;2024-02-15T03:19:30;1032.6;;;18.9;50.7
76044;BME280;64740;34.694;33.088;2024-02-15T03:24:52;1032.7;;;19;50.7
76044;BME280;64740;34.694;33.088;2024-02-15T03:29:22;1032.7;;;19;50.5
76044;BME280;64740;34.694;33.088;2024-02-15T03:34:52;1032.8;;;19;50.3
76044;BME280;64740;34.694;33.088;2024-02-15T03:39:24;1032.9;;;19;50.4
76044;BME280;64740;34.694;33.088;2024-02-15T03:44:44;1032.9;;;19.1;50.1
76044;BME280;64740;34.694;33.088;2024-02-15T03:49:30;1033;;;19.1;50
76044;BME280;64740;34.694;33.088;2024-02-15T03:54:38;1033;;;19.1;50
76044;BME280;64740;34.694;33.088;2024-02-15T03:59:54;1033;;;19.1;49.9
76044;BME280;64740;34.694;33.088;2024-02-15T04:04:44;1033.4;;;19;49.3
76044;BME280;64740;34.694;33.088;2024-02-15T04:09:36;1033.7;;;18.8;50.1
76044;BME280;64740;34.694;33.088;2024-02-15T04:14:54;1033.8;;;18.6;51.7
76044;BME280;64740;34.694;33.088;2024-02-15T04:19:48;1033.8;;;18.4;53.3
76044;BME280;64740;34.694;33.088;2024-02-15T04:24:38;1033.9;;;18.3;53.4
76044;BME280;64740;34.694;33.088;2024-02-15T04:29:24;1033.9;;;18.1;54.4
76044;BME280;64740;34.694;33.088;2024-02-15T04:34:24;1033.9;;;18;54.5
76044;BME280;64740;34.694;33.088;2024-02-15T04:39:16;1034;;;18;54.5
76044;BME280;64740;34.694;33.088;2024-02-15T04:44:16;1034.1;;;18.1;56.2
76044;BME280;64740;34.694;33.088;2024-02-15T04:49:38;1034.2;;;18.2;56.4
76044;BME280;64740;34.694;33.088;2024-02-15T04:54:24;1034.2;;;18.2;56.5
76044;BME280;64740;34.694;33.088;2024-02-15T04:59:54;1034.2;;;18.3;56.6
76044;BME280;64740;34.694;33.088;2024-02-15T05:04:16;1034.2;;;18.2;56.8
76044;BME280;64740;34.694;33.088;2024-02-15T05:09:54;1034.2;;;18.2;56.6
76044;BME280;64740;34.694;33.088;2024-02-15T05:14:24;1034.2;;;18.3;56.9
76044;BME280;64740;34.694;33.088;2024-02-15T05:19:32;1034.2;;;18.3;56.9
76044;BME280;64740;34.694;33.088;2024-02-15T05:24:30;1034.1;;;18.4;56.2
76044;BME280;64740;34.694;33.088;2024-02-15T05:29:18;1034.1;;;18.4;55.7
76044;BME280;64740;34.694;33.088;2024-02-15T05:34:54;1034;;;18.4;55.2
76044;BME280;64740;34.694;33.088;2024-02-15T05:39:44;1034;;;18.5;55.6
76044;BME280;64740;34.694;33.088;2024-02-15T05:44:28;1034;;;18.5;55.8
76044;BME280;64740;34.694;33.088;2024-02-15T05:49:52;1034;;;18.6;55.4
76044;BME280;64740;34.694;33.088;2024-02-15T05:54:34;1034;;;18.7;54.8
76044;BME280;64740;34.694;33.088;2024-02-15T05:59:44;1034;;;18.7;54.7
76044;BME280;64740;34.694;33.088;2024-02-15T06:04:48;1034;;;18.8;54.9
76044;BME280;64740;34.694;33.088;2024-02-15T06:09:32;1034;;;18.8;54.4
76044;BME280;64740;34.694;33.088;2024-02-15T06:14:16;1034;;;18.8;54.1
76044;BME280;64740;34.694;33.088;2024-02-15T06:19:30;1034;;;18.9;53.9
76044;BME280;64740;34.694;33.088;2024-02-15T06:24:16;1034;;;18.9;53.4
76044;BME280;64740;34.694;33.088;2024-02-15T06:29:46;1033.9;;;19;53.5
76044;BME280;64740;34.694;33.088;2024-02-15T06:34:54;1033.9;;;19.1;53.2
76044;BME280;64740;34.694;33.088;2024-02-15T06:39:32;1033.9;;;19.3;53.2
76044;BME280;64740;34.694;33.088;2024-02-15T06:44:54;1033.9;;;19.4;52.7
76044;BME280;64740;34.694;33.088;2024-02-15T06:49:46;1033.9;;;19.6;52.6
76044;BME280;64740;34.694;33.088;2024-02-15T06:54:40;1033.9;;;19.8;52.1
76044;BME280;64740;34.694;33.088;2024-02-15T06:59:54;1034;;;19.9;52.4
76044;BME280;64740;34.694;33.088;2024-02-15T07:04:40;1034;;;20.1;51.7
76044;BME280;64740;34.694;33.088;2024-02-15T07:09:44;1034;;;20.3;51.6
76044;BME280;64740;34.694;33.088;2024-02-15T07:14:30;1034;;;20.4;51.7
76044;BME280;64740;34.694;33.088;2024-02-15T07:19:36;1034.1;;;20.5;51.4
76044;BME280;64740;34.694;33.088;2024-02-15T07:24:46;1034.1;;;20.6;51.3
76044;BME280;64740;34.694;33.088;2024-02-15T07:29:54;1034.1;;;20.8;51
76044;BME280;64740;34.694;33.088;2024-02-15T07:34:16;1034.1;;;21;50.1
76044;BME280;64740;34.694;33.088;2024-02-15T07:39:32;1034.1;;;21.2;49.7
76044;BME280;64740;34.694;33.088;2024-02-15T07:44:18;1034.2;;;21.2;49.7
76044;BME280;64740;34.694;33.088;2024-02-15T07:49:16;1034.3;;;21.2;47.7
76044;BME280;64740;34.694;33.088;2024-02-15T07:54:26;1034.4;;;21.2;47
76044;BME280;64740;34.694;33.088;2024-02-15T07:59:26;1034.4;;;21.3;46.7
76044;BME280;64740;34.694;33.088;2024-02-15T08:04:34;1034.4;;;21.4;46.9
76044;BME280;64740;34.694;33.088;2024-02-15T08:09:54;1034.4;;;21.5;46.6
76044;BME280;64740;34.694;33.088;2024-02-15T08:14:18;1034.4;;;21.7;46.3
76044;BME280;64740;34.694;33.088;2024-02-15T08:19:54;1034.4;;;21.8;46.4
76044;BME280;64740;34.694;33.088;2024-02-15T08:24:54;1034.4;;;21.8;46.7
76044;BME280;64740;34.694;33.088;2024-02-15T08:29:38;1034.4;;;21.8;47
76044;BME280;64740;34.694;33.088;2024-02-15T08:34:54;1034.3;;;21.8;47
76044;BME280;64740;34.694;33.088;2024-02-15T08:39:54;1034.3;;;21.8;46.9
76044;BME280;64740;34.694;33.088;2024-02-15T08:44:44;1034.2;;;21.8;47
76044;BME280;64740;34.694;33.088;2024-02-15T08:49:30;1034;;;21.8;47.1
76044;BME280;64740;34.694;33.088;2024-02-15T08:54:40;1033.9;;;21.8;47.6
76044;BME280;64740;34.694;33.088;2024-02-15T08:59:46;1033.9;;;21.8;47.8
76044;BME280;64740;34.694;33.088;2024-02-15T09:04:52;1034;;;21.8;47.6
76044;BME280;64740;34.694;33.088;2024-02-15T09:09:36;1034.1;;;21.8;47.4
76044;BME280;64740;34.694;33.088;2024-02-15T09:14:42;1034;;;21.7;47.5
76044;BME280;64740;34.694;33.088;2024-02-15T09:19:24;1034;;;21.6;47.7
76044;BME280;64740;34.694;33.088;2024-02-15T09:24:16;1034;;;21.5;47.8
76044;BME280;64740;34.694;33.088;2024-02-15T09:29:27;1033.9;;;21.3;48.4
76044;BME280;64740;34.694;33.088;2024-02-15T09:34:24;1033.9;;;21.1;48.9
76044;BME280;64740;34.694;33.088;2024-02-15T09:39:36;1033.9;;;21;48.8
76044;BME280;64740;34.694;33.088;2024-02-15T09:44:54;1033.9;;;20.6;48.9
76044;BME280;64740;34.694;33.088;2024-02-15T09:49:35;1033.9;;;20;48.9
76044;BME280;64740;34.694;33.088;2024-02-15T09:54:52;1033.9;;;19.6;50.6
76044;BME280;64740;34.694;33.088;2024-02-15T09:59:54;1033.9;;;19.3;51.7
76044;BME280;64740;34.694;33.088;2024-02-15T10:04:16;1033.8;;;19.1;53.1
76044;BME280;64740;34.694;33.088;2024-02-15T10:09:44;1033.8;;;19;54.6
76044;BME280;64740;34.694;33.088;2024-02-15T10:14:52;1033.8;;;19.1;54.9
76044;BME280;64740;34.694;33.088;2024-02-15T10:19:18;1033.9;;;19.1;54.8
76044;BME280;64740;34.694;33.088;2024-02-15T10:24:30;1033.9;;;19.1;54.5
76044;BME280;64740;34.694;33.088;2024-02-15T10:29:21;1033.9;;;19.1;54.8
76044;BME280;64740;34.694;33.088;2024-02-15T10:34:46;1033.9;;;19.1;55.2
76044;BME280;64740;34.694;33.088;2024-02-15T10:40:03;1033.8;;;19.2;55.6
76044;BME280;64740;34.694;33.088;2024-02-15T10:44:34;1033.9;;;19.2;56.1
76044;BME280;64740;34.694;33.088;2024-02-15T10:49:54;1034;;;19.2;56
76044;BME280;64740;34.694;33.088;2024-02-15T10:54:46;1034.1;;;19.2;55.6
76044;BME280;64740;34.694;33.088;2024-02-15T10:59:34;1034.1;;;19.1;55.5
76044;BME280;64740;34.694;33.088;2024-02-15T11:04:27;1034.2;;;19.1;56
76044;BME280;64740;34.694;33.088;2024-02-15T11:09:25;1034.2;;;19.1;55.9
76044;BME280;64740;34.694;33.088;2024-02-15T11:14:37;1034.2;;;19;55.9
76044;BME280;64740;34.694;33.088;2024-02-15T11:19:40;1034.2;;;19;55.8
76044;BME280;64740;34.694;33.088;2024-02-15T11:24:47;1034.2;;;19;56
76044;BME280;64740;34.694;33.088;2024-02-15T11:29:48;1034.1;;;19.2;55.7
76044;BME280;64740;34.694;33.088;2024-02-15T11:35:01;1034.1;;;19.2;55.9
76044;BME280;64740;34.694;33.088;2024-02-15T11:39:48;1034.1;;;19.3;55.9
76044;BME280;64740;34.694;33.088;2024-02-15T11:45:01;1034.1;;;19.4;55.7
76044;BME280;64740;34.694;33.088;2024-02-15T11:49:41;1034.1;;;19.5;56
76044;BME280;64740;34.694;33.088;2024-02-15T11:54:31;1034;;;19.5;55.7
76044;BME280;64740;34.694;33.088;2024-02-15T11:59:37;1034;;;19.6;55.6
76044;BME280;64740;34.694;33.088;2024-02-15T12:04:35;1033.9;;;19.7;55.9
76044;BME280;64740;34.694;33.088;2024-02-15T12:09:58;1033.9;;;19.7;56.2
76044;BME280;64740;34.694;33.088;2024-02-15T12:14:45;1033.8;;;19.8;56.3
76044;BME280;64740;34.694;33.088;2024-02-15T12:19:17;1033.7;;;19.9;56.8
76044;BME280;64740;34.694;33.088;2024-02-15T12:24:55;1033.7;;;19.9;56.9
76044;BME280;64740;34.694;33.088;2024-02-15T12:29:45;1033.6;;;20;56.6
76044;BME280;64740;34.694;33.088;2024-02-15T12:34:47;1033.6;;;20.1;56.7
76044;BME280;64740;34.694;33.088;2024-02-15T12:39:37;1033.5;;;20.2;55.7
76044;BME280;64740;34.694;33.088;2024-02-15T12:44:25;1033.4;;;20.3;55.4
76044;BME280;64740;34.694;33.088;2024-02-15T12:49:37;1033.4;;;20.3;55.6
76044;BME280;64740;34.694;33.088;2024-02-15T12:54:25;1033.4;;;20.2;55.8
76044;BME280;64740;34.694;33.088;2024-02-15T12:59:47;1033.5;;;20;55.2
76044;BME280;64740;34.694;33.088;2024-02-15T13:04:47;1033.5;;;19.9;55.1
76044;BME280;64740;34.694;33.088;2024-02-15T13:09:19;1033.6;;;19.8;55.2
76044;BME280;64740;34.694;33.088;2024-02-15T13:14:33;1033.8;;;19.6;56
76044;BME280;64740;34.694;33.088;2024-02-15T13:19:55;1033.9;;;19.3;53.7
76044;BME280;64740;34.694;33.088;2024-02-15T13:24:47;1033.9;;;18.7;53.9
76044;BME280;64740;34.694;33.088;2024-02-15T13:29:41;1033.8;;;18.5;55.5
76044;BME280;64740;34.694;33.088;2024-02-15T13:34:17;1033.9;;;18.3;56.7
76044;BME280;64740;34.694;33.088;2024-02-15T13:39:39;1033.9;;;18.3;57.8
76044;BME280;64740;34.694;33.088;2024-02-15T13:44:53;1033.9;;;18.2;57.7
76044;BME280;64740;34.694;33.088;2024-02-15T13:49:43;1034;;;18.2;57.6
76044;BME280;64740;34.694;33.088;2024-02-15T13:54:35;1033.9;;;18.2;58.2
76044;BME280;64740;34.694;33.088;2024-02-15T13:59:53;1033.9;;;18.1;57.3
76044;BME280;64740;34.694;33.088;2024-02-15T14:04:53;1033.8;;;18.2;57.8
76044;BME280;64740;34.694;33.088;2024-02-15T14:09:47;1033.8;;;18.3;57.6
76044;BME280;64740;34.694;33.088;2024-02-15T14:14:29;1033.7;;;18.4;57.6
76044;BME280;64740;34.694;33.088;2024-02-15T14:19:25;1033.7;;;18.4;58
76044;BME280;64740;34.694;33.088;2024-02-15T14:24:17;1033.7;;;18.5;57.3
76044;BME280;64740;34.694;33.088;2024-02-15T14:29:33;1033.7;;;18.6;57
76044;BME280;64740;34.694;33.088;2024-02-15T14:34:17;1033.7;;;18.7;56.7
76044;BME280;64740;34.694;33.088;2024-02-15T14:39:33;1033.8;;;18.7;56.6
76044;BME280;64740;34.694;33.088;2024-02-15T14:44:25;1033.8;;;18.7;56.7
76044;BME280;64740;34.694;33.088;2024-02-15T14:49:33;1033.9;;;18.7;56.5
76044;BME280;64740;34.694;33.088;2024-02-15T14:54:55;1033.9;;;18.8;56.4
76044;BME280;64740;34.694;33.088;2024-02-15T14:59:45;1033.9;;;18.7;56.2
76044;BME280;64740;34.694;33.088;2024-02-15T15:04:41;1033.9;;;18.7;56.1
76044;BME280;64740;34.694;33.088;2024-02-15T15:09:17;1033.9;;;18.8;55.7
76044;BME280;64740;34.694;33.088;2024-02-15T15:14:41;1033.9;;;18.8;55.7
76044;BME280;64740;34.694;33.088;2024-02-15T15:19:45;1033.9;;;18.7;55.7
76044;BME280;64740;34.694;33.088;2024-02-15T15:24:23;1033.9;;;18.7;55.8
76044;BME280;64740;34.694;33.088;2024-02-15T15:29:37;1033.9;;;18.6;55.7
76044;BME280;64740;34.694;33.088;2024-02-15T15:34:39;1033.9;;;18.6;55.8
76044;BME280;64740;34.694;33.088;2024-02-15T15:39:55;1034;;;18.5;55.8
76044;BME280;64740;34.694;33.088;2024-02-15T15:44:17;1034.1;;;18.4;55.7
76044;BME280;64740;34.694;33.088;2024-02-15T15:49:37;1034.1;;;18.3;56.1
76044;BME280;64740;34.694;33.088;2024-02-15T15:54:25;1034.2;;;18.4;55.9
76044;BME280;64740;34.694;33.088;2024-02-15T15:59:23;1034.2;;;18.3;56.1
76044;BME280;64740;34.694;33.088;2024-02-15T16:04:17;1034.2;;;18.3;55.8
76044;BME280;64740;34.694;33.088;2024-02-15T16:09:17;1034.3;;;18.3;55.6
76044;BME280;64740;34.694;33.088;2024-02-15T16:14:25;1034.2;;;18.4;55.6
76044;BME280;64740;34.694;33.088;2024-02-15T16:19:55;1034.2;;;18.3;55.6
76044;BME280;64740;34.694;33.088;2024-02-15T16:24:47;1034.1;;;18.3;55.4
76044;BME280;64740;34.694;33.088;2024-02-15T16:29:39;1034.1;;;18;54.2
76044;BME280;64740;34.694;33.088;2024-02-15T16:34:55;1034.1;;;16.8;54.6
76044;BME280;64740;34.694;33.088;2024-02-15T16:39:47;1034.2;;;16;58.9
76044;BME280;64740;34.694;33.088;2024-02-15T16:44:55;1034.3;;;15.4;59.7
76044;BME280;64740;34.694;33.088;2024-02-15T16:49:55;1034.3;;;15;62.2
76044;BME280;64740;34.694;33.088;2024-02-15T16:54:45;1034.3;;;14.7;62.3
76044;BME280;64740;34.694;33.088;2024-02-15T16:59:32;1034.3;;;14.6;63.9
76044;BME280;64740;34.694;33.088;2024-02-15T17:04:41;1034.3;;;14.4;63.6
76044;BME280;64740;34.694;33.088;2024-02-15T17:09:47;1034.4;;;14.3;64.7
76044;BME280;64740;34.694;33.088;2024-02-15T17:14:55;1034.4;;;14.3;64.1
76044;BME280;64740;34.694;33.088;2024-02-15T17:19:29;1034.3;;;14.2;65
76044;BME280;64740;34.694;33.088;2024-02-15T17:24:55;1034.3;;;14.1;64.5
76044;BME280;64740;34.694;33.088;2024-02-15T17:29:37;1034.3;;;14.1;65.4
76044;BME280;64740;34.694;33.088;2024-02-15T17:34:17;1034.4;;;14.1;64.4
76044;BME280;64740;34.694;33.088;2024-02-15T17:39:25;1034.5;;;14;65.4
76044;BME280;64740;34.694;33.088;2024-02-15T17:44:25;1034.5;;;14;64.9
76044;BME280;64740;34.694;33.088;2024-02-15T17:49:47;1034.4;;;14;65.9
76044;BME280;64740;34.694;33.088;2024-02-15T17:54:17;1034.4;;;14.1;65.2
76044;BME280;64740;34.694;33.088;2024-02-15T17:59:43;1034.4;;;14;65.7
76044;BME280;64740;34.694;33.088;2024-02-15T18:04:33;1034.4;;;14.1;65.3
76044;BME280;64740;34.694;33.088;2024-02-15T18:09:55;1034.4;;;14;65.9
76044;BME280;64740;34.694;33.088;2024-02-15T18:14:25;1034.6;;;14.1;65.6
76044;BME280;64740;34.694;33.088;2024-02-15T18:19:55;1034.6;;;14.1;65.7
76044;BME280;64740;34.694;33.088;2024-02-15T18:24:55;1034.6;;;14.1;65.7
76044;BME280;64740;34.694;33.088;2024-02-15T18:29:45;1034.7;;;14.1;65.6
76044;BME280;64740;34.694;33.088;2024-02-15T18:34:31;1034.6;;;14.2;65.9
76044;BME280;64740;34.694;33.088;2024-02-15T18:39:41;1034.6;;;14.1;65.2
76044;BME280;64740;34.694;33.088;2024-02-15T18:44:47;1034.6;;;14.2;65.7
76044;BME280;64740;34.694;33.088;2024-02-15T18:49:55;1034.7;;;14.2;65.3
76044;BME280;64740;34.694;33.088;2024-02-15T18:54:17;1034.8;;;14.2;65.5
76044;BME280;64740;34.694;33.088;2024-02-15T18:59:45;1034.8;;;14.3;65.7
76044;BME280;64740;34.694;33.088;2024-02-15T19:04:37;1034.7;;;14.3;65.6
76044;BME280;64740;34.694;33.088;2024-02-15T19:09:25;1034.7;;;14.4;65.8
76044;BME280;64740;34.694;33.088;2024-02-15T19:14:17;1034.6;;;14.4;65.5
76044;BME280;64740;34.694;33.088;2024-02-15T19:19:31;1034.6;;;14.5;65.5
76044;BME280;64740;34.694;33.088;2024-02-15T19:24:17;1034.5;;;14.5;65.4
76044;BME280;64740;34.694;33.088;2024-02-15T19:29:33;1034.5;;;14.5;65.5
76044;BME280;64740;34.694;33.088;2024-02-15T19:34:45;1034.5;;;14.4;65.6
76044;BME280;64740;34.694;33.088;2024-02-15T19:39:25;1034.4;;;14.5;65.5
76044;BME280;64740;34.694;33.088;2024-02-15T19:44:55;1034.5;;;14.5;65.6
76044;BME280;64740;34.694;33.088;2024-02-15T19:49:17;1034.4;;;14.5;65.5
76044;BME280;64740;34.694;33.088;2024-02-15T19:54:55;1034.4;;;14.5;65.4
76044;BME280;64740;34.694;33.088;2024-02-15T19:59:31;1034.4;;;14.4;65.4
76044;BME280;64740;34.694;33.088;2024-02-15T20:04:45;1034.4;;;14.4;65.3
76044;BME280;64740;34.694;33.088;2024-02-15T20:09:45;1034.5;;;14.5;65.3
76044;BME280;64740;34.694;33.088;2024-02-15T20:14:31;1034.4;;;14.5;65.3
76044;BME280;64740;34.694;33.088;2024-02-15T20:19:53;1034.4;;;14.5;65.3
76044;BME280;64740;34.694;33.088;2024-02-15T20:24:19;1034.4;;;14.5;65.3
76044;BME280;64740;34.694;33.088;2024-02-15T20:29:35;1034.4;;;14.5;65.3
76044;BME280;64740;34.694;33.088;2024-02-15T20:34:53;1034.4;;;14.5;65.5
76044;BME280;64740;34.694;33.088;2024-02-15T20:39:51;1034.4;;;14.5;65.7
76044;BME280;64740;34.694;33.088;2024-02-15T20:44:45;1034.4;;;14.5;66
76044;BME280;64740;34.694;33.088;2024-02-15T20:49:17;1034.5;;;14.5;66.1
76044;BME280;64740;34.694;33.088;2024-02-15T20:54:31;1034.4;;;14.6;66.4
76044;BME280;64740;34.694;33.088;2024-02-15T20:59:29;1034.4;;;14.6;66.2
76044;BME280;64740;34.694;33.088;2024-02-15T21:04:17;1034.4;;;14.6;66.2
76044;BME280;64740;34.694;33.088;2024-02-15T21:09:17;1034.3;;;14.6;66.3
76044;BME280;64740;34.694;33.088;2024-02-15T21:14:31;1034.3;;;14.6;66.3
76044;BME280;64740;34.694;33.088;2024-02-15T21:19:31;1034.4;;;14.7;66.3
76044;BME280;64740;34.694;33.088;2024-02-15T21:24:31;1034.4;;;14.7;66.4
76044;BME280;64740;34.694;33.088;2024-02-15T21:29:53;1034.4;;;14.7;66.3
76044;BME280;64740;34.694;33.088;2024-02-15T21:34:45;1034.4;;;14.7;66.3
76044;BME280;64740;34.694;33.088;2024-02-15T21:39:19;1034.4;;;14.7;66.2
76044;BME280;64740;34.694;33.088;2024-02-15T21:44:23;1034.4;;;14.7;66.2
76044;BME280;64740;34.694;33.088;2024-02-15T21:49:39;1034.3;;;14.8;66.2
76044;BME280;64740;34.694;33.088;2024-02-15T21:54:43;1034.3;;;14.7;66
76044;BME280;64740;34.694;33.088;2024-02-15T21:59:23;1034.3;;;14.7;66.1
76044;BME280;64740;34.694;33.088;2024-02-15T22:04:17;1034.3;;;14.8;66.5
76044;BME280;64740;34.694;33.088;2024-02-15T22:09:39;1034.3;;;15.2;66.8
76044;BME280;64740;34.694;33.088;2024-02-15T22:14:53;1034.2;;;15.8;64.5
76044;BME280;64740;34.694;33.088;2024-02-15T22:19:53;1034.3;;;16.3;62.8
76044;BME280;64740;34.694;33.088;2024-02-15T22:24:43;1034.3;;;16.6;61.5
76044;BME280;64740;34.694;33.088;2024-02-15T22:29:23;1034.3;;;16.9;61.2
76044;BME280;64740;34.694;33.088;2024-02-15T22:34:23;1034.4;;;17.1;61.9
76044;BME280;64740;34.694;33.088;2024-02-15T22:39:23;1034.3;;;17.2;61.7
76044;BME280;64740;34.694;33.088;2024-02-15T22:44:17;1034.2;;;17.3;61.3
76044;BME280;64740;34.694;33.088;2024-02-15T22:49:17;1034.2;;;17.4;61.1
76044;BME280;64740;34.694;33.088;2024-02-15T22:54:53;1034.2;;;17.5;61.2
76044;BME280;64740;34.694;33.088;2024-02-15T22:59:45;1034.1;;;17.7;60.5
76044;BME280;64740;34.694;33.088;2024-02-15T23:04:53;1034.1;;;17.7;60.3
76044;BME280;64740;34.694;33.088;2024-02-15T23:09:33;1034.1;;;17.8;60.1
76044;BME280;64740;34.694;33.088;2024-02-15T23:14:39;1034;;;18;59.5
76044;BME280;64740;34.694;33.088;2024-02-15T23:19:23;1034;;;18.2;58.4
76044;BME280;64740;34.694;33.088;2024-02-15T23:24:31;1034;;;18.3;58.2
76044;BME280;64740;34.694;33.088;2024-02-15T23:29:43;1033.9;;;18.4;58
76044;BME280;64740;34.694;33.088;2024-02-15T23:34:53;1033.9;;;18.5;57.6
76044;BME280;64740;34.694;33.088;2024-02-15T23:39:35;1033.9;;;18.5;57.3
76044;BME280;64740;34.694;33.088;2024-02-15T23:44:51;1033.9;;;18.5;57.2
76044;BME280;64740;34.694;33.088;2024-02-15T23:49:51;1033.9;;;18.5;57.1
76044;BME280;64740;34.694;33.088;2024-02-15T23:54:33;1033.8;;;18.4;57.3
76044;BME280;64740;34.694;33.088;2024-02-15T23:59:41;1033.8;;;18.4;57.3
